createdAt,value
2023-03-19T00:02:18.019Z,14.70
2023-03-19T00:04:48.697Z,14.30
2023-03-19T00:07:21.670Z,14.10
2023-03-19T00:12:28.440Z,14.00
2023-03-19T00:14:58.538Z,11.10
2023-03-19T00:19:59.044Z,13.70
2023-03-19T00:22:31.713Z,13.80
2023-03-19T00:25:02.074Z,12.30
2023-03-19T00:27:32.115Z,9.50
2023-03-19T00:32:33.720Z,10.70
2023-03-19T00:35:03.937Z,12.40
2023-03-19T00:40:25.418Z,12.20
2023-03-19T00:42:55.976Z,13.70
2023-03-19T00:45:26.107Z,13.10
2023-03-19T00:47:56.366Z,9.30
2023-03-19T00:50:26.622Z,12.70
2023-03-19T00:52:59.368Z,12.00
2023-03-19T00:57:59.991Z,13.80
2023-03-19T01:00:30.462Z,12.90
2023-03-19T01:03:00.500Z,13.50
2023-03-19T01:05:31.376Z,12.40
2023-03-19T01:08:05.432Z,12.20
2023-03-19T01:10:37.754Z,12.20
2023-03-19T01:15:39.462Z,12.20
2023-03-19T01:20:41.427Z,12.10
2023-03-19T01:23:14.084Z,12.20
2023-03-19T01:25:44.413Z,13.70
2023-03-19T01:30:44.810Z,10.60
2023-03-19T01:35:46.334Z,10.40
2023-03-19T01:38:19.895Z,13.20
2023-03-19T01:40:50.964Z,12.00
2023-03-19T01:43:22.978Z,12.30
2023-03-19T01:45:55.853Z,13.70
2023-03-19T01:48:34.048Z,12.50
2023-03-19T01:51:06.268Z,13.40
2023-03-19T01:53:40.534Z,13.50
2023-03-19T01:56:17.386Z,10.50
2023-03-19T01:58:49.597Z,13.70
2023-03-19T02:01:20.927Z,10.20
2023-03-19T02:03:54.067Z,10.70
2023-03-19T02:06:25.049Z,10.20
2023-03-19T02:08:59.360Z,11.50
2023-03-19T02:13:59.789Z,10.00
2023-03-19T02:16:30.099Z,11.10
2023-03-19T02:21:32.973Z,12.80
2023-03-19T02:24:17.726Z,10.40
2023-03-19T02:26:51.054Z,14.00
2023-03-19T02:34:41.604Z,11.90
2023-03-19T02:37:17.190Z,11.50
2023-03-19T02:42:41.791Z,11.80
2023-03-19T02:45:12.621Z,12.90
2023-03-19T02:47:42.886Z,12.40
2023-03-19T02:50:13.805Z,9.90
2023-03-19T02:52:44.199Z,12.00
2023-03-19T02:55:16.983Z,11.80
2023-03-19T02:57:50.318Z,12.90
2023-03-19T03:00:21.393Z,10.00
2023-03-19T03:02:51.331Z,11.40
2023-03-19T03:05:21.652Z,12.20
2023-03-19T03:07:52.015Z,8.90
2023-03-19T03:12:55.101Z,11.40
2023-03-19T03:15:25.457Z,9.00
2023-03-19T03:20:27.033Z,12.70
2023-03-19T03:22:57.125Z,12.40
2023-03-19T03:25:27.351Z,9.50
2023-03-19T03:28:00.103Z,12.40
2023-03-19T03:30:30.162Z,11.10
2023-03-19T03:35:31.046Z,11.10
2023-03-19T03:40:31.474Z,7.70
2023-03-19T03:43:04.291Z,9.40
2023-03-19T03:45:34.368Z,11.80
2023-03-19T03:48:04.520Z,10.80
2023-03-19T03:50:34.723Z,9.90
2023-03-19T03:53:05.192Z,12.30
2023-03-19T03:55:35.988Z,11.00
2023-03-19T03:58:09.127Z,12.00
2023-03-19T04:05:40.747Z,11.80
2023-03-19T04:08:11.500Z,9.30
2023-03-19T04:10:43.889Z,11.90
2023-03-19T04:13:16.790Z,11.00
2023-03-19T04:15:47.922Z,8.50
2023-03-19T04:18:17.819Z,11.10
2023-03-19T04:20:50.998Z,12.00
2023-03-19T04:23:21.234Z,12.30
2023-03-19T04:25:51.837Z,11.80
2023-03-19T04:28:24.748Z,9.20
2023-03-19T04:33:25.596Z,12.30
2023-03-19T04:38:27.928Z,12.40
2023-03-19T04:40:58.986Z,8.80
2023-03-19T04:43:31.834Z,12.20
2023-03-19T04:46:02.190Z,12.10
2023-03-19T04:51:04.079Z,10.50
2023-03-19T05:01:08.420Z,8.40
2023-03-19T05:08:40.141Z,11.20
2023-03-19T05:13:43.192Z,12.00
2023-03-19T05:16:14.006Z,12.10
2023-03-19T05:18:44.871Z,7.90
2023-03-19T05:21:16.027Z,8.90
2023-03-19T05:23:45.897Z,10.60
2023-03-19T05:28:49.699Z,7.80
2023-03-19T05:33:50.186Z,10.90
2023-03-19T05:38:50.884Z,9.90
2023-03-19T05:41:20.891Z,11.60
2023-03-19T05:43:53.962Z,8.40
2023-03-19T05:46:24.534Z,8.90
2023-03-19T05:51:24.896Z,11.40
2023-03-19T05:58:58.395Z,10.90
2023-03-19T06:08:59.568Z,12.20
2023-03-19T06:11:29.624Z,10.50
2023-03-19T06:14:02.401Z,10.30
2023-03-19T06:19:02.935Z,10.90
2023-03-19T06:21:32.972Z,11.10
2023-03-19T06:24:03.374Z,8.50
2023-03-19T06:26:33.429Z,9.30
2023-03-19T06:29:06.824Z,10.40
2023-03-19T06:31:39.605Z,8.10
2023-03-19T06:36:40.190Z,10.80
2023-03-19T06:44:13.499Z,11.20
2023-03-19T06:46:43.569Z,12.30
2023-03-19T06:49:14.024Z,11.50
2023-03-19T06:54:14.400Z,14.50
2023-03-19T06:56:44.478Z,9.50
2023-03-19T06:59:17.688Z,13.20
2023-03-19T07:06:48.763Z,12.90
2023-03-19T07:09:18.902Z,11.70
2023-03-19T07:11:48.937Z,10.20
2023-03-19T07:14:21.598Z,11.40
2023-03-19T07:21:53.530Z,9.90
2023-03-19T07:24:23.720Z,9.40
2023-03-19T07:29:27.262Z,12.00
2023-03-19T07:31:57.674Z,12.70
2023-03-19T07:34:28.073Z,12.90
2023-03-19T07:36:58.469Z,14.10
2023-03-19T07:39:28.682Z,11.80
2023-03-19T07:41:58.702Z,14.60
2023-03-19T07:44:31.528Z,14.20
2023-03-19T07:47:01.943Z,13.40
2023-03-19T07:49:32.088Z,12.60
2023-03-19T07:54:32.519Z,13.60
2023-03-19T07:57:02.581Z,14.40
2023-03-19T07:59:35.306Z,13.70
2023-03-19T08:02:05.413Z,10.90
2023-03-19T08:09:44.370Z,14.00
2023-03-19T08:12:14.778Z,17.60
2023-03-19T08:17:17.746Z,18.90
2023-03-19T08:27:18.742Z,21.00
2023-03-19T08:29:51.384Z,22.40
2023-03-19T08:32:21.449Z,20.80
2023-03-19T08:34:51.898Z,17.80
2023-03-19T08:37:22.062Z,18.80
2023-03-19T08:39:54.027Z,16.00
2023-03-19T08:42:24.626Z,15.10
2023-03-19T08:44:57.453Z,16.60
2023-03-19T08:50:01.772Z,14.00
2023-03-19T08:52:31.876Z,15.80
2023-03-19T08:57:33.532Z,13.20
2023-03-19T09:00:07.959Z,15.80
2023-03-19T09:05:09.355Z,16.10
2023-03-19T09:07:39.479Z,14.50
2023-03-19T09:10:10.966Z,12.00
2023-03-19T09:12:41.079Z,12.10
2023-03-19T09:15:13.936Z,12.80
2023-03-19T09:17:44.046Z,12.90
2023-03-19T09:20:14.800Z,17.10
2023-03-19T09:22:44.975Z,15.50
2023-03-19T09:25:15.465Z,14.70
2023-03-19T09:27:45.495Z,16.40
2023-03-19T09:37:52.094Z,14.30
2023-03-19T09:40:27.953Z,14.20
2023-03-19T09:43:09.402Z,12.60
2023-03-19T09:45:42.339Z,12.50
2023-03-19T09:48:22.164Z,14.00
2023-03-19T09:50:53.596Z,14.30
2023-03-19T09:53:33.826Z,14.50
2023-03-19T09:56:08.400Z,12.40
2023-03-19T10:01:26.203Z,13.70
2023-03-19T10:04:21.938Z,12.40
2023-03-19T10:09:46.892Z,13.50
2023-03-19T10:12:29.536Z,12.10
2023-03-19T10:15:11.537Z,12.30
2023-03-19T10:17:50.663Z,14.20
2023-03-19T10:20:28.297Z,15.50
2023-03-19T10:23:04.287Z,13.70
2023-03-19T10:25:38.592Z,14.10
2023-03-19T10:28:18.964Z,15.80
2023-03-19T10:31:00.024Z,11.70
2023-03-19T10:33:46.673Z,11.90
2023-03-19T10:38:47.931Z,11.80
2023-03-19T10:41:37.451Z,15.80
2023-03-19T10:44:13.357Z,15.90
2023-03-19T10:46:43.757Z,14.90
2023-03-19T10:49:19.290Z,16.10
2023-03-19T10:51:49.706Z,11.90
2023-03-19T10:54:25.117Z,13.40
2023-03-19T10:56:58.868Z,15.20
2023-03-19T10:59:34.330Z,13.70
2023-03-19T11:02:18.419Z,13.80
2023-03-19T11:04:50.973Z,13.80
2023-03-19T11:07:23.902Z,15.70
2023-03-19T11:09:54.682Z,15.40
2023-03-19T11:12:27.543Z,12.50
2023-03-19T11:15:00.936Z,16.50
2023-03-19T11:17:39.879Z,15.70
2023-03-19T11:20:26.574Z,17.00
2023-03-19T11:23:02.893Z,15.30
2023-03-19T11:25:37.233Z,14.80
2023-03-19T11:28:11.385Z,13.50
2023-03-19T11:33:38.353Z,13.50
2023-03-19T11:36:16.781Z,13.10
2023-03-19T11:38:59.103Z,12.60
2023-03-19T11:41:41.067Z,15.60
2023-03-19T11:44:19.427Z,17.40
2023-03-19T11:46:56.106Z,17.90
2023-03-19T11:50:00.486Z,15.60
2023-03-19T11:52:42.535Z,15.40
2023-03-19T11:55:21.478Z,14.70
2023-03-19T11:58:33.466Z,18.10
2023-03-19T12:01:09.479Z,16.50
2023-03-19T12:04:23.426Z,18.00
2023-03-19T12:07:01.456Z,16.80
2023-03-19T12:09:42.351Z,18.40
2023-03-19T12:12:26.654Z,17.70
2023-03-19T12:15:08.760Z,16.40
2023-03-19T12:18:01.818Z,17.50
2023-03-19T12:20:38.884Z,17.10
2023-03-19T12:23:26.074Z,15.10
2023-03-19T12:26:08.956Z,15.10
2023-03-19T12:28:44.113Z,16.20
2023-03-19T12:31:31.160Z,16.20
2023-03-19T12:34:15.276Z,16.60
2023-03-19T12:36:53.136Z,16.20
2023-03-19T12:39:29.083Z,16.10
2023-03-19T12:42:03.659Z,16.10
2023-03-19T12:44:39.197Z,17.40
2023-03-19T12:47:13.571Z,16.00
2023-03-19T12:49:52.235Z,14.90
2023-03-19T12:52:25.386Z,15.80
2023-03-19T12:55:03.225Z,17.40
2023-03-19T12:57:43.404Z,17.60
2023-03-19T13:00:19.082Z,15.20
2023-03-19T13:02:55.005Z,16.20
2023-03-19T13:05:34.596Z,16.40
2023-03-19T13:08:12.129Z,16.10
2023-03-19T13:10:42.927Z,17.70
2023-03-19T13:13:28.246Z,16.10
2023-03-19T13:16:02.460Z,15.10
2023-03-19T13:18:40.128Z,17.20
2023-03-19T13:21:24.796Z,17.70
2023-03-19T13:24:05.471Z,16.70
2023-03-19T13:26:37.660Z,18.30
2023-03-19T13:29:21.602Z,17.00
2023-03-19T13:31:52.352Z,15.80
2023-03-19T13:34:29.634Z,15.90
2023-03-19T13:37:05.117Z,17.70
2023-03-19T13:39:37.268Z,14.90
2023-03-19T13:42:14.101Z,19.20
2023-03-19T13:44:52.637Z,15.10
2023-03-19T13:47:42.474Z,17.60
2023-03-19T13:50:31.637Z,14.60
2023-03-19T13:53:40.231Z,17.60
2023-03-19T13:56:28.487Z,14.10
2023-03-19T13:59:28.014Z,14.10
2023-03-19T14:02:01.475Z,13.70
2023-03-19T14:04:33.669Z,14.40
2023-03-19T14:07:15.190Z,13.70
2023-03-19T14:09:48.746Z,15.10
2023-03-19T14:12:35.586Z,15.80
2023-03-19T14:15:18.086Z,13.20
2023-03-19T14:18:00.543Z,12.90
2023-03-19T14:20:40.589Z,15.70
2023-03-19T14:23:36.240Z,12.20
2023-03-19T14:26:20.448Z,15.40
2023-03-19T14:29:00.544Z,12.50
2023-03-19T14:31:38.734Z,12.30
2023-03-19T14:34:22.230Z,13.00
2023-03-19T14:36:58.877Z,15.70
2023-03-19T14:39:31.793Z,11.90
2023-03-19T14:42:10.772Z,13.50
2023-03-19T14:45:12.100Z,15.20
2023-03-19T14:47:58.586Z,11.30
2023-03-19T14:50:55.651Z,15.20
2023-03-19T14:53:32.365Z,12.30
2023-03-19T14:56:12.582Z,10.90
2023-03-19T14:58:51.974Z,13.60
2023-03-19T15:01:22.882Z,16.20
2023-03-19T15:03:58.132Z,12.50
2023-03-19T15:06:36.114Z,14.20
2023-03-19T15:12:00.788Z,14.60
2023-03-19T15:14:53.576Z,13.30
2023-03-19T15:17:27.836Z,12.20
2023-03-19T15:20:02.045Z,14.40
2023-03-19T15:22:36.845Z,13.80
2023-03-19T15:25:11.135Z,15.40
2023-03-19T15:27:41.657Z,15.30
2023-03-19T15:30:28.809Z,15.20
2023-03-19T15:35:47.993Z,15.30
2023-03-19T15:38:21.850Z,16.40
2023-03-19T15:40:52.406Z,10.90
2023-03-19T15:43:23.544Z,12.60
2023-03-19T15:45:56.767Z,12.40
2023-03-19T15:48:31.437Z,13.80
2023-03-19T15:51:03.744Z,14.50
2023-03-19T15:53:38.442Z,16.40
2023-03-19T15:56:10.105Z,12.30
2023-03-19T15:58:43.678Z,13.70
2023-03-19T16:01:15.250Z,15.00
2023-03-19T16:03:47.543Z,14.00
2023-03-19T16:06:26.953Z,12.70
2023-03-19T16:09:16.299Z,13.80
2023-03-19T16:11:49.037Z,13.80
2023-03-19T16:14:26.714Z,14.80
2023-03-19T16:17:03.913Z,12.20
2023-03-19T16:19:40.243Z,12.00
2023-03-19T16:22:17.880Z,15.00
2023-03-19T16:24:51.783Z,13.40
2023-03-19T16:27:24.379Z,13.20
2023-03-19T16:30:00.349Z,14.50
2023-03-19T16:32:31.898Z,12.40
2023-03-19T16:35:08.235Z,11.00
2023-03-19T16:37:44.120Z,14.40
2023-03-19T16:40:42.784Z,13.20
2023-03-19T16:43:20.010Z,14.80
2023-03-19T16:45:54.524Z,15.60
2023-03-19T16:53:28.060Z,12.90
2023-03-19T16:56:03.156Z,14.90
2023-03-19T16:58:37.257Z,12.70
2023-03-19T17:01:16.164Z,14.90
2023-03-19T17:03:47.107Z,13.10
2023-03-19T17:06:27.420Z,12.60
2023-03-19T17:08:57.684Z,13.80
2023-03-19T17:11:33.952Z,11.20
2023-03-19T17:16:36.832Z,10.80
2023-03-19T17:19:13.035Z,12.50
2023-03-19T17:21:43.373Z,12.40
2023-03-19T17:24:24.340Z,14.60
2023-03-19T17:26:58.156Z,12.20
2023-03-19T17:29:28.492Z,10.10
2023-03-19T17:32:01.651Z,13.50
2023-03-19T17:34:33.679Z,12.20
2023-03-19T17:37:05.934Z,13.70
2023-03-19T17:39:36.192Z,13.80
2023-03-19T17:49:48.086Z,9.70
2023-03-19T17:52:19.515Z,9.90
2023-03-19T17:57:22.936Z,11.90
2023-03-19T17:59:53.182Z,10.50
2023-03-19T18:02:39.956Z,10.10
2023-03-19T18:05:18.012Z,13.70
2023-03-19T18:10:21.258Z,11.90
2023-03-19T18:15:26.228Z,11.90
2023-03-19T18:17:59.237Z,11.70
2023-03-19T18:20:32.534Z,11.80
2023-03-19T18:28:09.243Z,11.90
2023-03-19T18:30:41.654Z,11.90
2023-03-19T18:33:18.575Z,11.80
2023-03-19T18:35:49.382Z,13.50
2023-03-19T18:40:51.316Z,12.00
2023-03-19T18:43:24.519Z,10.30
2023-03-19T18:45:56.110Z,13.70
2023-03-19T18:48:31.407Z,9.80
2023-03-19T18:51:01.750Z,9.30
2023-03-19T18:53:31.982Z,12.10
2023-03-19T18:56:04.103Z,10.50
2023-03-19T18:58:37.808Z,11.60
2023-03-19T19:01:08.300Z,9.80
2023-03-19T19:03:39.457Z,11.50
2023-03-19T19:06:10.471Z,11.50
2023-03-19T19:13:55.427Z,11.40
2023-03-19T19:16:29.235Z,11.40
2023-03-19T19:18:59.656Z,11.50
2023-03-19T19:24:00.161Z,9.50
2023-03-19T19:26:32.701Z,12.90
2023-03-19T19:29:06.689Z,13.20
2023-03-19T19:31:38.471Z,11.70
2023-03-19T19:36:39.022Z,13.40
2023-03-19T19:41:40.703Z,11.60
2023-03-19T19:44:19.947Z,10.00
2023-03-19T19:49:25.264Z,11.50
2023-03-19T19:56:58.026Z,13.20
2023-03-19T19:59:30.505Z,11.50
2023-03-19T20:02:00.675Z,9.80
2023-03-19T20:04:30.891Z,13.10
2023-03-19T20:12:04.067Z,13.50
2023-03-19T20:14:37.042Z,11.70
2023-03-19T20:19:40.753Z,13.70
2023-03-19T20:22:11.046Z,13.30
2023-03-19T20:27:19.093Z,11.80
2023-03-19T20:29:53.846Z,8.60
2023-03-19T20:32:34.309Z,11.60
2023-03-19T20:35:05.100Z,9.00
2023-03-19T20:37:35.500Z,13.90
2023-03-19T20:42:37.244Z,11.80
2023-03-19T20:45:17.030Z,10.10
2023-03-19T20:47:47.449Z,13.20
2023-03-19T20:50:23.849Z,12.50
2023-03-19T20:52:55.641Z,12.40
2023-03-19T20:55:29.374Z,11.70
2023-03-19T20:57:59.698Z,9.60
2023-03-19T21:00:34.986Z,12.10
2023-03-19T21:03:05.894Z,11.60
2023-03-19T21:05:39.750Z,11.60
2023-03-19T21:08:17.262Z,12.60
2023-03-19T21:10:49.924Z,11.40
2023-03-19T21:13:22.881Z,11.50
2023-03-19T21:15:59.863Z,13.10
2023-03-19T21:18:30.186Z,9.10
2023-03-19T21:23:35.125Z,11.30
2023-03-19T21:26:12.102Z,12.30
2023-03-19T21:28:43.658Z,11.20
2023-03-19T21:31:20.902Z,12.50
2023-03-19T21:33:53.005Z,11.20
2023-03-19T21:36:23.162Z,10.50
2023-03-19T21:41:26.616Z,11.80
2023-03-19T21:43:59.281Z,10.90
2023-03-19T21:46:33.906Z,12.00
2023-03-19T21:49:04.408Z,10.90
2023-03-19T21:54:06.238Z,10.90
2023-03-19T21:56:40.880Z,11.00
2023-03-19T21:59:17.559Z,8.90
2023-03-19T22:01:51.148Z,12.80
2023-03-19T22:06:52.110Z,12.90
2023-03-19T22:09:22.503Z,11.30
2023-03-19T22:11:52.669Z,11.50
2023-03-19T22:14:28.205Z,9.00
2023-03-19T22:17:01.936Z,11.60
2023-03-19T22:19:32.167Z,7.90
2023-03-19T22:22:02.235Z,8.60
2023-03-19T22:27:02.672Z,12.50
2023-03-19T22:29:35.868Z,10.30
2023-03-19T22:32:16.691Z,8.80
2023-03-19T22:37:28.374Z,10.20
2023-03-19T22:39:58.939Z,8.30
2023-03-19T22:42:29.758Z,10.00
2023-03-19T22:47:35.390Z,10.20
2023-03-19T23:00:12.649Z,9.80
2023-03-19T23:02:45.702Z,9.50
2023-03-19T23:05:32.456Z,10.90
2023-03-19T23:08:05.970Z,8.20
2023-03-19T23:13:08.791Z,11.90
2023-03-19T23:15:40.013Z,8.10
2023-03-19T23:18:17.532Z,10.00
2023-03-19T23:20:48.348Z,11.50
2023-03-19T23:23:19.504Z,10.00
2023-03-19T23:25:50.163Z,9.80
2023-03-19T23:28:22.931Z,7.60
2023-03-19T23:30:54.549Z,9.60
2023-03-19T23:33:27.965Z,10.90
2023-03-19T23:41:01.217Z,6.20
2023-03-19T23:43:32.187Z,10.90
2023-03-19T23:48:38.668Z,10.90
2023-03-19T23:51:10.005Z,8.80
2023-03-19T23:53:40.325Z,9.20
2023-03-19T23:56:17.651Z,9.20
2023-03-19T23:58:49.429Z,10.60
